KIAB/IAB METAR and TAF weather

Enter ICAO airport designator
Station Type Date Time Source
KIAB METAR 2023/02/01 10:55 UTC NOAA

KIAB 011055Z AUTO 22005KT 10SM CLR M09/M12 A3030 RMK AO2 SLP285 T10891125


Station Type Date Time Source
KIAB Decoded METAR 2023/02/01 10:55 UTC NOAA

McConnell Air Force Base, KS, United States (KIAB) 37-37N 097-16W
Feb 01, 2023 - 05:55 AM EST / 2023.02.01 1055 UTC
Wind: from the SW (220 degrees) at 6 MPH (5 KT):0
Visibility: 10 mile(s):0
Sky conditions: clear
Temperature: 16.0 F (-8.9 C)
Windchill: 6 F (-14 C):1
Dew Point: 9.5 F (-12.5 C)
Relative Humidity: 75%
Pressure (altimeter): 30.3 in. Hg (1026 hPa)
ob: KIAB 011055Z AUTO 22005KT 10SM CLR M09/M12 A3030 RMK AO2 SLP285 T10891125
cycle: 11

Station Type Date Time Source
KIAB TAF 2023/02/01 10:03 UTC NOAA

TAF KIAB 011000Z 0110/0216 20006KT 9999 SKC QNH3019INS TX03/0121Z TNM11/0112Z

Example: see airport list